Time;durP1;ratioP1;P1;durP2;ratioP2;P2;SDS_P1;SDS_P2;PMS_P1;PMS_P2;Temp;Humidity;BMP_temperature;BMP_pressure;BME280_temperature;BME280_humidity;BME280_pressure;Samples;Min_cycle;Max_cycle;Signal;HPM_P1;HPM_P2
2023/07/13 00:00:11;;;;;;;2.10;1.90;;;;;;;19.28;100.00;99091.00;5094224;28;20190;-77
2023/07/13 00:02:40;;;;;;;4.30;2.10;;;;;;;19.21;100.00;99085.94;5093519;28;20562;-78
2023/07/13 00:05:07;;;;;;;4.83;1.80;;;;;;;19.38;100.00;99087.34;5079736;28;20231;-77
2023/07/13 00:07:35;;;;;;;2.80;2.03;;;;;;;19.27;100.00;99081.25;5093587;28;20226;-78
2023/07/13 00:10:03;;;;;;;3.93;1.90;;;;;;;19.24;100.00;99079.09;5091701;28;20256;-77
2023/07/13 00:12:33;;;;;;;3.43;2.13;;;;;;;19.26;100.00;99074.19;5094650;28;20619;-77
2023/07/13 00:15:03;;;;;;;2.77;1.90;;;;;;;19.22;100.00;99059.59;5090533;28;20713;-77
2023/07/13 00:17:30;;;;;;;2.20;1.83;;;;;;;19.23;100.00;99066.59;5085066;28;20242;-77
2023/07/13 00:19:58;;;;;;;3.33;2.10;;;;;;;19.21;100.00;99068.81;5090496;28;20197;-77
2023/07/13 00:22:34;;;;;;;3.23;1.93;;;;;;;19.21;100.00;99076.97;5079683;28;20632;-77
2023/07/13 00:25:01;;;;;;;2.80;1.90;;;;;;;19.23;100.00;99069.31;5085529;28;20566;-77
2023/07/13 00:27:29;;;;;;;2.33;2.00;;;;;;;19.20;100.00;99057.16;5073348;28;20718;-77
2023/07/13 00:29:56;;;;;;;2.73;2.13;;;;;;;19.23;100.00;99044.88;5079706;28;20196;-78
2023/07/13 00:32:27;;;;;;;2.27;2.07;;;;;;;19.30;100.00;99053.50;5074849;28;20200;-78
2023/07/13 00:34:54;;;;;;;2.00;1.90;;;;;;;19.27;100.00;99045.94;5077657;28;20275;-78
2023/07/13 00:37:20;;;;;;;2.57;1.90;;;;;;;19.24;100.00;99046.50;5082409;28;20224;-77
2023/07/13 00:39:47;;;;;;;2.70;2.23;;;;;;;19.19;100.00;99046.56;5086628;28;20254;-77
2023/07/13 00:42:13;;;;;;;2.83;2.00;;;;;;;19.14;100.00;99047.44;5080135;28;20237;-77
2023/07/13 00:44:40;;;;;;;2.57;2.10;;;;;;;19.10;100.00;99046.41;5098323;28;20230;-76
2023/07/13 00:47:07;;;;;;;2.20;2.00;;;;;;;19.01;100.00;99052.75;5085084;28;20611;-77
2023/07/13 00:49:35;;;;;;;2.27;2.10;;;;;;;19.00;100.00;99056.56;5082934;28;20274;-77
2023/07/13 00:52:06;;;;;;;2.13;1.93;;;;;;;18.98;100.00;99048.72;5086488;28;20190;-77
2023/07/13 00:54:37;;;;;;;1.97;1.83;;;;;;;19.03;100.00;99037.00;5078637;28;20257;-77
2023/07/13 00:57:07;;;;;;;2.57;1.97;;;;;;;19.02;100.00;99035.38;5093581;28;20202;-77
2023/07/13 00:59:35;;;;;;;2.60;2.30;;;;;;;19.02;100.00;99019.91;5090570;28;20219;-77
2023/07/13 01:02:02;;;;;;;2.77;2.03;;;;;;;19.01;100.00;99007.41;5075926;28;20703;-77
2023/07/13 01:04:29;;;;;;;1.90;1.80;;;;;;;19.00;100.00;99002.25;5099321;28;20317;-77
2023/07/13 01:06:57;;;;;;;2.60;1.90;;;;;;;19.00;100.00;99002.25;5079252;28;20222;-77
2023/07/13 01:09:23;;;;;;;1.97;1.77;;;;;;;19.02;100.00;99005.50;5114392;28;20201;-77
2023/07/13 01:11:50;;;;;;;2.67;1.90;;;;;;;19.07;100.00;99005.44;5114013;28;20214;-77
2023/07/13 01:14:17;;;;;;;1.70;1.60;;;;;;;19.04;100.00;99006.81;5105868;28;20234;-77
2023/07/13 01:16:47;;;;;;;2.30;1.83;;;;;;;19.06;100.00;98995.69;5113643;28;20259;-76
2023/07/13 01:19:36;;;;;;;3.20;2.00;;;;;;;19.10;100.00;99004.84;5086934;28;20639;-77
2023/07/13 01:22:08;;;;;;;2.33;1.80;;;;;;;19.10;100.00;98977.72;5090559;28;20682;-77
2023/07/13 01:24:36;;;;;;;2.10;1.80;;;;;;;19.05;100.00;98975.06;5114364;28;20232;-77
2023/07/13 01:27:03;;;;;;;2.83;1.70;;;;;;;19.02;100.00;98972.94;5093692;28;20197;-76
2023/07/13 01:29:31;;;;;;;1.93;1.70;;;;;;;18.96;100.00;98957.78;5109441;28;20703;-78
2023/07/13 01:31:59;;;;;;;2.03;1.83;;;;;;;18.90;100.00;98938.03;5113447;28;20195;-77
2023/07/13 01:34:27;;;;;;;2.23;1.70;;;;;;;18.89;100.00;98942.69;5113629;28;20192;-77
2023/07/13 01:36:54;;;;;;;3.63;1.80;;;;;;;18.83;100.00;98943.03;5113414;28;20282;-76
2023/07/13 01:39:21;;;;;;;2.23;1.70;;;;;;;18.82;100.00;98949.56;5109160;28;20236;-77
2023/07/13 01:41:48;;;;;;;3.30;1.90;;;;;;;18.86;100.00;98956.00;5113008;28;20664;-77
2023/07/13 01:44:15;;;;;;;2.47;1.73;;;;;;;18.93;100.00;98964.63;5095240;28;20285;-76
2023/07/13 01:46:42;;;;;;;1.87;1.77;;;;;;;18.94;100.00;98966.25;5113270;28;20197;-76
2023/07/13 01:49:10;;;;;;;1.90;1.80;;;;;;;18.98;100.00;98969.19;5094975;28;20252;-77
2023/07/13 01:51:37;;;;;;;2.40;2.20;;;;;;;19.00;100.00;98973.22;5113039;28;20234;-77
2023/07/13 01:54:03;;;;;;;2.43;2.10;;;;;;;18.99;100.00;98965.38;5113204;28;20278;-77
2023/07/13 01:56:30;;;;;;;3.93;2.67;;;;;;;19.00;100.00;98970.50;5111501;28;20198;-77
2023/07/13 01:58:57;;;;;;;2.90;2.33;;;;;;;19.00;100.00;98975.13;5094878;28;20298;-77
2023/07/13 02:01:23;;;;;;;2.47;2.30;;;;;;;19.00;100.00;98964.25;5106287;28;20893;-76
2023/07/13 02:03:51;;;;;;;4.10;2.40;;;;;;;19.03;100.00;98964.50;5110793;28;20672;-77
2023/07/13 02:06:19;;;;;;;2.33;2.13;;;;;;;18.97;100.00;98964.84;5099337;28;20197;-76
2023/07/13 02:08:47;;;;;;;2.40;2.20;;;;;;;18.92;100.00;98977.38;5094692;28;20211;-77
2023/07/13 02:11:14;;;;;;;4.13;2.30;;;;;;;18.92;100.00;98979.28;5089198;28;20225;-77
2023/07/13 02:13:40;;;;;;;3.87;2.50;;;;;;;18.89;100.00;98988.84;5093296;28;20186;-77
2023/07/13 02:16:07;;;;;;;3.57;2.47;;;;;;;18.89;100.00;98991.53;5107689;28;20564;-76
2023/07/13 02:18:34;;;;;;;2.97;2.17;;;;;;;18.91;100.00;99011.03;5112269;28;20677;-78
2023/07/13 02:21:02;;;;;;;2.37;2.17;;;;;;;18.90;100.00;99017.56;5108475;28;20224;-77
2023/07/13 02:23:29;;;;;;;2.27;1.97;;;;;;;18.94;100.00;99027.88;5094138;28;20205;-76
2023/07/13 02:25:57;;;;;;;1.90;1.80;;;;;;;18.98;100.00;99045.19;5094063;28;20203;-77
2023/07/13 02:28:24;;;;;;;2.30;2.10;;;;;;;19.01;100.00;99053.56;5112417;28;20198;-77
2023/07/13 02:30:51;;;;;;;2.73;2.40;;;;;;;19.02;100.00;99054.38;5089500;28;20224;-77
2023/07/13 02:33:17;;;;;;;4.27;2.20;;;;;;;19.06;100.00;99069.78;5089980;28;20641;-77
2023/07/13 02:35:44;;;;;;;2.60;1.90;;;;;;;19.07;100.00;99076.84;5112843;28;20241;-77
2023/07/13 02:38:11;;;;;;;2.40;1.97;;;;;;;19.12;100.00;99086.84;5112486;28;20263;-77
2023/07/13 02:40:38;;;;;;;2.03;1.90;;;;;;;19.17;100.00;99112.03;5112030;28;20194;-76
2023/07/13 02:43:04;;;;;;;2.20;1.80;;;;;;;19.22;100.00;99117.38;5112609;28;20244;-76
2023/07/13 02:45:31;;;;;;;2.20;1.63;;;;;;;19.39;100.00;99130.53;5112534;28;20559;-76
2023/07/13 02:47:58;;;;;;;2.47;1.90;;;;;;;19.45;100.00;99131.31;5105688;28;20224;-77
2023/07/13 02:50:25;;;;;;;2.77;1.70;;;;;;;19.49;100.00;99135.88;5111117;28;20352;-75
2023/07/13 02:52:52;;;;;;;3.17;1.70;;;;;;;19.57;100.00;99146.09;5110829;28;20190;-76
2023/07/13 02:55:18;;;;;;;3.07;1.53;;;;;;;19.58;100.00;99152.34;5110776;28;20725;-75
2023/07/13 02:57:45;;;;;;;1.93;1.80;;;;;;;19.60;100.00;99155.56;5075835;28;20232;-75
2023/07/13 03:00:12;;;;;;;2.33;1.53;;;;;;;19.66;100.00;99162.56;5091268;28;20569;-75
2023/07/13 03:02:40;;;;;;;1.70;1.60;;;;;;;19.68;100.00;99168.53;5093959;28;20621;-76
2023/07/13 03:05:07;;;;;;;2.13;1.70;;;;;;;19.72;100.00;99183.16;5111913;28;20226;-75
2023/07/13 03:07:34;;;;;;;2.07;1.60;;;;;;;19.69;100.00;99187.25;5083800;28;20289;-75
2023/07/13 03:10:01;;;;;;;2.17;1.50;;;;;;;19.66;100.00;99200.63;5108525;28;20233;-75
2023/07/13 03:12:38;;;;;;;2.07;1.47;;;;;;;19.77;100.00;99194.78;5083745;28;20230;-75
2023/07/13 03:15:10;;;;;;;2.10;1.90;;;;;;;19.73;100.00;99204.63;5078760;28;20582;-74
2023/07/13 03:17:39;;;;;;;1.97;1.67;;;;;;;19.69;100.00;99213.66;5105096;28;20211;-75
2023/07/13 03:20:07;;;;;;;7.37;1.93;;;;;;;19.60;100.00;99209.91;5082808;28;20288;-76
2023/07/13 03:22:34;;;;;;;2.20;1.77;;;;;;;19.54;100.00;99214.63;5096210;28;20192;-75
2023/07/13 03:25:01;;;;;;;2.10;1.90;;;;;;;19.56;100.00;99219.75;5098207;28;20225;-75
2023/07/13 03:27:28;;;;;;;1.70;1.60;;;;;;;19.52;100.00;99221.41;5077932;28;20210;-75
2023/07/13 03:29:54;;;;;;;2.87;1.40;;;;;;;19.40;100.00;99229.94;5097855;28;20209;-75
2023/07/13 03:32:22;;;;;;;2.83;2.03;;;;;;;19.34;100.00;99226.47;5070149;28;20199;-74
2023/07/13 03:34:48;;;;;;;2.93;1.77;;;;;;;19.34;100.00;99229.19;5093137;28;20282;-76
2023/07/13 03:37:16;;;;;;;3.60;1.80;;;;;;;19.25;100.00;99232.81;5077094;28;20205;-75
2023/07/13 03:39:43;;;;;;;2.27;1.60;;;;;;;19.27;100.00;99241.47;5069011;28;20699;-75
2023/07/13 03:42:10;;;;;;;3.53;1.87;;;;;;;19.31;100.00;99250.69;5072653;28;20302;-74
2023/07/13 03:44:39;;;;;;;2.40;1.80;;;;;;;19.24;100.00;99245.56;5069653;28;20203;-74
2023/07/13 03:47:08;;;;;;;3.07;2.00;;;;;;;19.16;100.00;99237.22;5103035;28;20223;-75
2023/07/13 03:49:35;;;;;;;2.27;2.07;;;;;;;19.15;100.00;99241.03;5093177;28;20293;-75
2023/07/13 03:52:02;;;;;;;2.17;1.97;;;;;;;19.14;100.00;99233.97;5113708;28;20194;-75
2023/07/13 03:54:28;;;;;;;2.57;1.90;;;;;;;19.08;100.00;99246.81;5111858;28;20276;-75
2023/07/13 03:56:55;;;;;;;4.67;2.20;;;;;;;19.04;100.00;99240.31;5094118;28;20204;-74
2023/07/13 03:59:22;;;;;;;3.47;2.03;;;;;;;19.01;100.00;99232.72;5097134;28;20709;-75
2023/07/13 04:01:48;;;;;;;4.30;2.40;;;;;;;19.02;100.00;99225.41;5096844;28;20222;-74
2023/07/13 04:04:15;;;;;;;3.30;2.17;;;;;;;19.02;100.00;99212.66;5105111;28;20224;-75
2023/07/13 04:06:42;;;;;;;3.47;2.23;;;;;;;19.00;100.00;99212.09;5111298;28;20255;-75
2023/07/13 04:09:11;;;;;;;2.43;2.23;;;;;;;19.00;100.00;99195.00;5079035;28;20207;-75
2023/07/13 04:11:38;;;;;;;3.70;2.30;;;;;;;19.02;100.00;99192.81;5080288;28;20246;-74
2023/07/13 04:14:05;;;;;;;2.13;1.90;;;;;;;19.02;100.00;99184.69;5082651;28;20206;-74
2023/07/13 04:16:33;;;;;;;3.43;2.43;;;;;;;19.01;100.00;99173.00;5083706;28;20313;-74
2023/07/13 04:19:00;;;;;;;4.93;2.50;;;;;;;19.04;100.00;99158.84;5113281;28;20230;-75
2023/07/13 04:21:29;;;;;;;5.00;2.43;;;;;;;19.07;100.00;99150.16;5111125;28;20188;-75
2023/07/13 04:23:56;;;;;;;3.33;2.10;;;;;;;19.09;100.00;99147.13;5113665;28;20198;-75
2023/07/13 04:26:23;;;;;;;3.23;2.40;;;;;;;19.12;100.00;99127.56;5115114;28;20250;-75
2023/07/13 04:28:51;;;;;;;6.43;2.60;;;;;;;19.14;100.00;99118.03;5115088;28;20194;-74
2023/07/13 04:31:18;;;;;;;5.00;2.70;;;;;;;19.12;100.00;99106.66;5114923;28;20687;-75
2023/07/13 04:33:45;;;;;;;4.63;2.70;;;;;;;19.12;100.00;99084.13;5114894;28;20203;-74
2023/07/13 04:36:15;;;;;;;5.43;2.73;;;;;;;19.19;100.00;99073.72;5114639;28;20657;-74
2023/07/13 04:38:42;;;;;;;3.50;2.83;;;;;;;19.21;100.00;99066.09;5115156;28;20210;-74
2023/07/13 04:41:09;;;;;;;4.53;2.60;;;;;;;19.25;100.00;99053.56;5106659;28;20224;-75
2023/07/13 04:43:35;;;;;;;3.50;2.73;;;;;;;19.34;100.00;99049.09;5114646;28;20222;-74
2023/07/13 04:46:07;;;;;;;4.47;3.17;;;;;;;19.31;100.00;99036.13;5114896;28;20280;-76
2023/07/13 04:48:34;;;;;;;4.93;2.80;;;;;;;19.38;100.00;99052.03;5105529;28;20646;-74
2023/07/13 04:51:01;;;;;;;3.57;2.80;;;;;;;19.43;100.00;99046.53;5111063;28;20203;-75
2023/07/13 04:53:29;;;;;;;5.13;2.73;;;;;;;19.56;100.00;99043.94;5114463;28;20196;-75
2023/07/13 04:55:56;;;;;;;3.43;3.10;;;;;;;19.66;100.00;99043.81;5114525;28;20212;-74
2023/07/13 04:58:24;;;;;;;3.93;2.90;;;;;;;19.70;100.00;99038.59;5112489;28;20194;-76
2023/07/13 05:00:51;;;;;;;4.80;3.10;;;;;;;19.83;100.00;99048.72;5112962;28;20227;-75
2023/07/13 05:03:17;;;;;;;4.23;2.83;;;;;;;19.78;100.00;99037.97;5105725;28;20188;-75
2023/07/13 05:05:57;;;;;;;4.37;2.70;;;;;;;19.75;100.00;99023.03;5110229;28;20224;-75
2023/07/13 05:08:24;;;;;;;3.10;2.60;;;;;;;19.84;100.00;99016.91;5102110;28;20664;-74
2023/07/13 05:10:51;;;;;;;3.67;2.50;;;;;;;19.80;100.00;99011.28;5104365;28;20279;-75
2023/07/13 05:13:18;;;;;;;3.20;2.33;;;;;;;19.78;100.00;99017.00;5110607;28;20194;-75
2023/07/13 05:15:46;;;;;;;2.93;2.47;;;;;;;19.93;100.00;99035.00;5110445;28;20187;-74
2023/07/13 05:18:13;;;;;;;4.93;2.43;;;;;;;20.12;100.00;99076.56;5113885;28;20655;-75
2023/07/13 05:20:40;;;;;;;5.67;2.37;;;;;;;20.47;100.00;99099.75;5112072;28;20274;-77
2023/07/13 05:23:07;;;;;;;3.93;2.30;;;;;;;20.90;100.00;99107.72;5113633;28;20197;-75
2023/07/13 05:25:33;;;;;;;2.80;1.90;;;;;;;21.53;100.00;99114.16;5113820;28;20208;-75
2023/07/13 05:28:00;;;;;;;3.33;2.17;;;;;;;21.94;100.00;99121.50;5113567;28;20194;-74
2023/07/13 05:30:26;;;;;;;3.47;2.00;;;;;;;22.15;100.00;99133.59;5114009;28;20256;-74
2023/07/13 05:32:53;;;;;;;3.75;2.05;;;;;;;22.39;100.00;99138.78;5113472;28;20542;-74
2023/07/13 05:35:20;;;;;;;2.72;2.20;;;;;;;22.43;100.00;99153.41;5113826;28;20184;-75
2023/07/13 05:37:46;;;;;;;2.97;1.95;;;;;;;22.42;100.00;99159.97;5113287;28;20233;-76
2023/07/13 05:40:13;;;;;;;3.20;1.88;;;;;;;22.42;100.00;99164.63;5095267;28;20243;-76
2023/07/13 05:42:39;;;;;;;4.50;1.80;;;;;;;22.42;100.00;99168.16;5110602;28;20241;-74
2023/07/13 05:45:06;;;;;;;3.15;2.00;;;;;;;22.29;100.00;99179.94;5110568;28;20626;-75
2023/07/13 05:47:33;;;;;;;2.35;1.80;;;;;;;22.14;100.00;99193.91;5102372;28;20287;-75
2023/07/13 05:50:00;;;;;;;3.42;1.98;;;;;;;21.96;100.00;99182.00;5113224;28;20215;-74
2023/07/13 05:52:29;;;;;;;3.28;1.77;;;;;;;21.81;100.00;99183.09;5109016;28;20246;-75
2023/07/13 05:54:55;;;;;;;2.83;2.17;;;;;;;21.52;100.00;99177.94;5107450;28;20235;-75
2023/07/13 05:57:22;;;;;;;3.25;2.15;;;;;;;21.35;100.00;99172.28;5112564;28;20689;-75
2023/07/13 05:59:49;;;;;;;3.95;2.00;;;;;;;21.20;100.00;99171.75;5103746;28;20208;-75
2023/07/13 06:02:16;;;;;;;3.17;2.40;;;;;;;21.04;100.00;99171.19;5107421;28;20212;-74
2023/07/13 06:04:42;;;;;;;2.88;2.13;;;;;;;20.97;100.00;99173.47;5106881;28;20314;-74
2023/07/13 06:07:09;;;;;;;2.78;2.22;;;;;;;21.04;100.00;99177.44;5109084;28;20265;-74
2023/07/13 06:09:37;;;;;;;4.30;2.50;;;;;;;21.08;100.00;99174.94;5105502;28;20722;-75
2023/07/13 06:12:05;;;;;;;2.85;2.20;;;;;;;21.04;100.00;99177.44;5112408;28;20248;-75
2023/07/13 06:14:31;;;;;;;4.15;2.55;;;;;;;21.09;100.00;99185.50;5106326;28;20857;-74
2023/07/13 06:16:58;;;;;;;3.67;2.05;;;;;;;21.13;100.00;99185.78;5112436;28;20246;-75
2023/07/13 06:19:24;;;;;;;4.22;2.28;;;;;;;21.07;100.00;99186.94;5095075;28;20217;-76
2023/07/13 06:21:51;;;;;;;2.40;2.20;;;;;;;21.18;100.00;99179.44;5100299;28;20192;-74
2023/07/13 06:24:18;;;;;;;3.47;2.08;;;;;;;21.21;100.00;99187.81;5107744;28;20224;-75
2023/07/13 06:26:44;;;;;;;3.08;1.58;;;;;;;21.25;100.00;99193.44;5106351;28;20256;-74
2023/07/13 06:29:11;;;;;;;2.75;1.85;;;;;;;21.33;100.00;99192.75;5093481;28;20630;-75
2023/07/13 06:31:38;;;;;;;3.20;1.50;;;;;;;21.39;100.00;99194.28;5111161;28;20248;-74
2023/07/13 06:34:05;;;;;;;1.90;1.40;;;;;;;21.45;100.00;99191.19;5111045;28;20658;-75
2023/07/13 06:36:31;;;;;;;2.53;1.48;;;;;;;21.60;100.00;99192.00;5110581;28;20244;-75
2023/07/13 06:38:58;;;;;;;1.77;1.40;;;;;;;21.92;100.00;99194.63;5109971;28;20290;-75
2023/07/13 06:41:28;;;;;;;1.80;1.48;;;;;;;22.28;100.00;99186.50;5111767;28;20241;-76
2023/07/13 06:43:54;;;;;;;3.58;1.80;;;;;;;22.75;100.00;99199.63;5098141;28;20319;-75
2023/07/13 06:46:22;;;;;;;2.22;1.45;;;;;;;23.16;100.00;99190.41;5111704;28;20211;-74
2023/07/13 06:48:49;;;;;;;2.13;1.50;;;;;;;23.51;100.00;99185.97;5111934;28;20200;-75
2023/07/13 06:51:16;;;;;;;1.63;1.52;;;;;;;23.80;100.00;99197.16;5102030;28;20691;-76
2023/07/13 06:53:43;;;;;;;1.63;1.50;;;;;;;24.06;100.00;99192.59;5110763;28;20223;-76
2023/07/13 06:56:10;;;;;;;1.58;1.40;;;;;;;24.48;100.00;99202.03;5107136;28;20280;-76
2023/07/13 06:58:37;;;;;;;2.53;1.73;;;;;;;24.79;100.00;99201.03;5112278;28;20192;-75
2023/07/13 07:01:05;;;;;;;2.33;1.65;;;;;;;25.06;100.00;99203.44;5111878;28;20316;-78
2023/07/13 07:03:34;;;;;;;1.73;1.60;;;;;;;25.37;100.00;99200.50;5111943;28;20217;-77
2023/07/13 07:06:16;;;;;;;2.20;1.80;;;;;;;25.82;100.00;99203.56;5112167;28;20234;-76
2023/07/13 07:08:45;;;;;;;1.85;1.75;;;;;;;26.47;100.00;99205.78;5112008;28;20203;-76
2023/07/13 07:11:13;;;;;;;2.10;1.90;;;;;;;26.82;100.00;99197.28;5105047;28;20198;-77
2023/07/13 07:13:40;;;;;;;1.75;1.60;;;;;;;26.90;100.00;99207.41;5088035;28;20234;-75
2023/07/13 07:16:07;;;;;;;1.95;1.67;;;;;;;26.75;100.00;99195.06;5110088;28;20230;-77
2023/07/13 07:18:34;;;;;;;2.10;1.67;;;;;;;26.77;100.00;99201.03;5110796;28;20226;-78
2023/07/13 07:21:01;;;;;;;1.33;1.23;;;;;;;26.63;100.00;99197.75;5111375;28;20235;-78
2023/07/13 07:23:28;;;;;;;1.60;1.50;;;;;;;26.41;100.00;99190.63;5111469;28;20191;-78
2023/07/13 07:25:54;;;;;;;1.95;1.20;;;;;;;26.36;100.00;99201.84;5094087;28;20255;-77
2023/07/13 07:28:21;;;;;;;2.35;1.20;;;;;;;26.52;100.00;99193.78;5114427;28;20664;-77
2023/07/13 07:30:53;;;;;;;1.38;1.25;;;;;;;26.46;100.00;99201.41;5112177;28;20283;-80
2023/07/13 07:33:40;;;;;;;1.60;1.50;;;;;;;26.45;100.00;99199.03;5115551;28;20262;-79
2023/07/13 07:36:07;;;;;;;1.65;1.42;;;;;;;26.41;100.00;99192.59;5115454;28;20217;-76
2023/07/13 07:38:36;;;;;;;1.40;1.30;;;;;;;26.52;100.00;99191.84;5115476;28;20194;-76
2023/07/13 07:41:06;;;;;;;1.45;1.20;;;;;;;26.57;100.00;99183.41;5104834;28;20220;-79
2023/07/13 07:43:36;;;;;;;1.35;1.23;;;;;;;26.44;100.00;99191.94;5115491;28;20200;-79
2023/07/13 07:46:03;;;;;;;1.55;1.17;;;;;;;26.42;100.00;99184.00;5115365;28;20218;-79
2023/07/13 07:48:30;;;;;;;1.55;1.05;;;;;;;26.43;100.00;99188.38;5107026;28;20202;-79
2023/07/13 07:50:57;;;;;;;1.17;1.08;;;;;;;26.33;100.00;99176.97;5115012;28;20192;-78
2023/07/13 07:53:24;;;;;;;0.90;0.80;;;;;;;26.06;100.00;99178.25;5095123;28;20755;-78
2023/07/13 07:55:51;;;;;;;1.27;0.80;;;;;;;26.08;100.00;99178.75;5085718;28;20213;-77
2023/07/13 07:58:21;;;;;;;1.10;0.90;;;;;;;26.25;100.00;99182.19;5101139;28;20279;-76
2023/07/13 08:00:50;;;;;;;0.70;0.70;;;;;;;26.29;100.00;99180.41;5101412;28;20221;-76
2023/07/13 08:03:20;;;;;;;0.98;0.95;;;;;;;26.17;100.00;99191.28;5100675;28;20267;-76
2023/07/13 08:05:52;;;;;;;0.88;0.70;;;;;;;26.11;100.00;99183.56;5110785;28;20732;-77
2023/07/13 08:08:39;;;;;;;1.38;0.80;;;;;;;26.18;100.00;99195.59;5109661;28;20220;-75
2023/07/13 08:11:08;;;;;;;2.65;1.00;;;;;;;26.14;100.00;99183.69;5104755;28;20219;-75
2023/07/13 08:13:37;;;;;;;2.33;1.17;;;;;;;26.10;100.00;99193.72;5103270;28;20598;-74
2023/07/13 08:16:04;;;;;;;3.00;0.80;;;;;;;26.09;100.00;99191.31;5108615;28;20624;-78
2023/07/13 08:18:31;;;;;;;0.85;0.80;;;;;;;26.11;100.00;99195.34;5101211;28;20218;-75
2023/07/13 08:20:58;;;;;;;1.00;0.75;;;;;;;26.05;100.00;99196.66;5104283;28;20219;-76
2023/07/13 08:23:25;;;;;;;1.08;0.90;;;;;;;26.08;100.00;99181.50;5102098;28;20207;-78
2023/07/13 08:25:53;;;;;;;0.80;0.80;;;;;;;25.97;100.00;99193.97;5102127;28;20223;-76
2023/07/13 08:28:20;;;;;;;1.05;0.80;;;;;;;25.95;100.00;99196.22;5098527;28;20192;-75
2023/07/13 08:30:48;;;;;;;1.33;0.85;;;;;;;26.09;100.00;99200.34;5101064;28;20200;-75
2023/07/13 08:33:16;;;;;;;1.75;1.00;;;;;;;25.99;100.00;99199.94;5094705;28;20201;-77
2023/07/13 08:35:48;;;;;;;1.00;0.73;;;;;;;26.00;100.00;99193.31;5105447;28;20255;-77
2023/07/13 08:38:16;;;;;;;2.10;0.77;;;;;;;26.22;100.00;99193.84;5111918;28;20249;-74
2023/07/13 08:40:44;;;;;;;0.98;0.98;;;;;;;26.35;100.00;99216.72;5114174;28;20267;-75
2023/07/13 08:43:17;;;;;;;1.45;0.88;;;;;;;26.37;100.00;99210.84;5113815;28;20196;-75
2023/07/13 08:45:51;;;;;;;1.17;1.00;;;;;;;26.55;100.00;99212.38;5108733;28;20200;-74
2023/07/13 08:48:26;;;;;;;1.23;0.80;;;;;;;26.67;100.00;99212.44;5093185;28;20194;-75
2023/07/13 08:51:04;;;;;;;1.67;1.00;;;;;;;26.88;100.00;99202.25;5087470;28;20207;-75
2023/07/13 08:53:36;;;;;;;0.93;0.90;;;;;;;27.40;100.00;99204.47;5105053;28;20195;-75
2023/07/13 08:56:04;;;;;;;1.00;0.88;;;;;;;27.32;100.00;99208.13;5093274;28;20195;-74
2023/07/13 08:58:31;;;;;;;0.77;0.77;;;;;;;27.59;100.00;99211.06;5095228;28;20184;-75
2023/07/13 09:01:18;;;;;;;1.13;0.90;;;;;;;27.87;100.00;99222.22;5092725;28;20216;-77
2023/07/13 09:04:05;;;;;;;1.50;1.00;;;;;;;27.91;100.00;99208.56;5113465;28;20191;-78
2023/07/13 09:07:00;;;;;;;1.02;0.90;;;;;;;28.44;99.72;99213.81;5095996;28;20667;-77
2023/07/13 09:09:42;;;;;;;1.33;1.02;;;;;;;28.62;99.52;99221.81;5110220;28;20682;-77
2023/07/13 09:12:15;;;;;;;1.55;1.00;;;;;;;28.44;97.57;99213.81;5106833;28;20196;-77
2023/07/13 09:14:45;;;;;;;2.05;1.00;;;;;;;28.45;100.00;99218.19;5095085;28;20224;-77
2023/07/13 09:17:19;;;;;;;1.10;1.00;;;;;;;27.92;98.92;99210.16;5095418;28;20265;-74
2023/07/13 09:19:50;;;;;;;1.95;1.13;;;;;;;28.34;99.48;99217.06;5093127;28;20766;-77
2023/07/13 09:22:19;;;;;;;1.70;1.15;;;;;;;28.42;97.59;99213.34;5113635;28;20203;-78
2023/07/13 09:24:45;;;;;;;1.15;1.05;;;;;;;28.68;97.11;99229.50;5094356;28;20267;-76
2023/07/13 09:27:24;;;;;;;1.17;1.00;;;;;;;29.00;94.51;99218.59;5113449;28;20237;-78
2023/07/13 09:29:56;;;;;;;1.42;1.05;;;;;;;29.28;93.34;99219.38;5089972;28;20192;-77
2023/07/13 09:32:24;;;;;;;1.13;1.00;;;;;;;29.47;90.65;99202.19;5091450;28;20188;-78
2023/07/13 09:34:54;;;;;;;2.83;1.00;;;;;;;29.40;89.67;99213.81;5071115;28;20576;-77
2023/07/13 09:37:24;;;;;;;1.42;1.30;;;;;;;29.84;88.35;99220.09;5112887;28;20208;-77
2023/07/13 09:39:52;;;;;;;1.30;1.20;;;;;;;30.41;87.08;99221.44;5087155;28;20213;-77
2023/07/13 09:42:21;;;;;;;1.33;1.23;;;;;;;30.11;82.64;99221.94;5112214;28;20220;-77
2023/07/13 09:44:55;;;;;;;1.45;1.30;;;;;;;30.44;82.97;99213.22;5087827;28;20188;-77
2023/07/13 09:47:26;;;;;;;1.80;1.48;;;;;;;30.61;81.06;99212.84;5099981;28;20203;-77
2023/07/13 09:49:59;;;;;;;2.20;1.65;;;;;;;30.23;79.79;99209.19;5101828;28;20225;-78
2023/07/13 09:52:41;;;;;;;2.15;1.48;;;;;;;30.37;79.37;99192.94;5106452;28;20271;-78
2023/07/13 09:55:24;;;;;;;1.67;1.58;;;;;;;30.49;81.14;99206.66;5086142;28;20189;-77
2023/07/13 09:57:52;;;;;;;2.38;1.40;;;;;;;30.55;80.51;99194.16;5105116;28;20203;-77
2023/07/13 10:00:25;;;;;;;1.50;1.40;;;;;;;30.94;79.62;99198.50;5105377;28;20616;-77
2023/07/13 10:03:14;;;;;;;1.70;1.50;;;;;;;31.12;79.15;99207.19;5104775;28;20203;-77
2023/07/13 10:05:44;;;;;;;2.05;1.42;;;;;;;31.43;79.82;99201.44;5106497;28;20243;-78
2023/07/13 10:08:21;;;;;;;2.75;1.60;;;;;;;31.44;76.58;99211.38;5106001;28;20192;-77
2023/07/13 10:11:10;;;;;;;1.70;1.60;;;;;;;31.55;74.99;99211.53;5103638;28;20193;-76
2023/07/13 10:13:43;;;;;;;1.85;1.70;;;;;;;31.77;73.26;99215.50;5100179;28;20606;-77
2023/07/13 10:16:09;;;;;;;2.05;1.95;;;;;;;31.16;74.27;99219.13;5094266;28;20214;-77
2023/07/13 10:18:44;;;;;;;2.15;2.05;;;;;;;30.54;75.06;99226.53;5092244;28;20221;-77
2023/07/13 10:21:21;;;;;;;2.67;2.47;;;;;;;31.07;75.30;99223.28;5089449;28;20239;-77
2023/07/13 10:24:12;;;;;;;2.38;2.20;;;;;;;30.98;73.24;99221.50;5105014;28;20270;-77
2023/07/13 10:26:52;;;;;;;2.78;2.30;;;;;;;30.45;73.26;99211.28;5088607;28;20205;-77
2023/07/13 10:29:20;;;;;;;2.60;2.22;;;;;;;30.53;74.38;99208.31;5093898;28;20191;-77
2023/07/13 10:31:47;;;;;;;2.60;2.40;;;;;;;31.20;75.17;99222.75;5094277;28;20227;-77
2023/07/13 10:34:14;;;;;;;2.70;2.50;;;;;;;31.17;73.16;99215.19;5092254;28;20678;-77
2023/07/13 10:36:47;;;;;;;2.60;2.40;;;;;;;30.31;73.16;99206.22;5090109;28;20188;-77
2023/07/13 10:39:26;;;;;;;3.42;2.28;;;;;;;29.99;74.54;99221.25;5107828;28;20242;-78
2023/07/13 10:41:55;;;;;;;3.20;2.85;;;;;;;29.93;76.54;99217.97;5103155;28;20423;-77
2023/07/13 10:44:30;;;;;;;2.60;2.40;;;;;;;30.09;75.24;99202.19;5094214;28;20267;-77
2023/07/13 10:47:03;;;;;;;2.70;2.45;;;;;;;29.89;74.49;99208.81;5112691;28;20197;-77
2023/07/13 10:49:31;;;;;;;2.53;2.33;;;;;;;29.42;75.77;99203.25;5094341;28;20192;-77
2023/07/13 10:51:58;;;;;;;2.72;2.33;;;;;;;29.38;75.68;99204.31;5092514;28;20557;-77
2023/07/13 10:54:32;;;;;;;2.00;1.90;;;;;;;29.38;73.60;99202.34;5092875;28;20203;-78
2023/07/13 10:57:16;;;;;;;2.50;2.30;;;;;;;29.55;77.68;99210.28;5094134;28;20196;-77
2023/07/13 11:00:09;;;;;;;2.60;2.40;;;;;;;29.90;75.41;99204.06;5091412;28;20196;-77
2023/07/13 11:02:36;;;;;;;3.45;2.10;;;;;;;29.95;70.69;99203.81;5097181;28;20203;-78
2023/07/13 11:05:31;;;;;;;3.53;2.28;;;;;;;30.28;70.60;99208.91;5112448;28;20235;-76
2023/07/13 11:08:13;;;;;;;2.95;2.28;;;;;;;30.15;70.29;99214.53;5088190;28;20573;-77
2023/07/13 11:10:51;;;;;;;3.03;2.08;;;;;;;30.58;71.16;99218.28;5082505;28;20192;-77
2023/07/13 11:13:47;;;;;;;3.28;2.10;;;;;;;30.86;70.61;99212.56;5108423;28;20192;-78
2023/07/13 11:16:20;;;;;;;2.50;1.83;;;;;;;30.73;67.77;99220.22;5111236;28;20196;-77
2023/07/13 11:19:15;;;;;;;2.20;2.05;;;;;;;30.91;64.25;99220.56;5105753;28;20203;-77
2023/07/13 11:22:16;;;;;;;2.40;2.00;;;;;;;30.89;62.21;99201.56;5088932;28;20212;-77
2023/07/13 11:24:57;;;;;;;2.47;1.90;;;;;;;30.91;63.39;99212.28;5025925;28;20640;-78
2023/07/13 11:27:40;;;;;;;1.80;1.70;;;;;;;30.69;63.67;99213.00;5107694;28;20203;-77
2023/07/13 11:30:29;;;;;;;2.63;1.88;;;;;;;30.60;62.56;99215.97;5077058;28;20577;-79
2023/07/13 11:33:14;;;;;;;3.20;2.00;;;;;;;30.35;62.00;99220.13;5059924;28;20196;-77
2023/07/13 11:36:03;;;;;;;2.80;1.80;;;;;;;30.33;61.72;99226.00;5109607;28;20278;-77
2023/07/13 11:38:41;;;;;;;2.30;2.10;;;;;;;30.43;63.16;99222.69;5109892;28;20565;-77